Time;durP1;ratioP1;P1;durP2;ratioP2;P2;SDS_P1;SDS_P2;PMS_P1;PMS_P2;Temp;Humidity;BMP_temperature;BMP_pressure;BME280_temperature;BME280_humidity;BME280_pressure;Samples;Min_cycle;Max_cycle;Signal;HPM_P1;HPM_P2
2022/05/16 00:00:49;;;;;;;;;;;;;;;8.98;65.04;97921.94;5069902;28;19928;-65
2022/05/16 00:03:14;;;;;;;;;;;;;;;8.99;64.52;97926.97;5071368;28;20289;-64
2022/05/16 00:05:40;;;;;;;;;;;;;;;8.99;64.09;97923.53;5071051;28;20321;-65
2022/05/16 00:08:05;;;;;;;;;;;;;;;8.95;64.52;97931.19;5074191;28;19970;-63
2022/05/16 00:10:31;;;;;;;;;;;;;;;9.00;64.29;97925.09;5074804;28;19934;-64
2022/05/16 00:12:59;;;;;;;;;;;;;;;9.02;63.65;97923.78;5073370;28;19924;-63
2022/05/16 00:15:25;;;;;;;;;;;;;;;9.00;63.78;97933.03;5074707;28;20065;-64
2022/05/16 00:17:51;;;;;;;;;;;;;;;9.03;63.84;97932.50;5074468;28;20359;-64
2022/05/16 00:20:17;;;;;;;;;;;;;;;9.02;64.32;97931.72;5074639;28;19960;-65
2022/05/16 00:22:42;;;;;;;;;;;;;;;8.96;64.49;97924.06;5074149;28;20443;-64
2022/05/16 00:25:09;;;;;;;;;;;;;;;9.04;65.00;97926.19;5074591;28;19973;-65
2022/05/16 00:27:35;;;;;;;;;;;;;;;9.04;65.50;97928.81;5074246;28;19924;-64
2022/05/16 00:30:02;;;;;;;;;;;;;;;8.98;66.20;97921.94;5106573;28;19929;-65
2022/05/16 00:32:28;;;;;;;;;;;;;;;9.01;65.48;97932.00;5074458;28;19975;-63
2022/05/16 00:34:53;;;;;;;;;;;;;;;8.98;66.44;97935.16;5072869;28;20360;-64
2022/05/16 00:37:19;;;;;;;;;;;;;;;8.95;66.78;97920.63;5090004;28;19921;-66
2022/05/16 00:39:44;;;;;;;;;;;;;;;8.96;66.12;97922.19;5106669;28;19935;-65
2022/05/16 00:42:11;;;;;;;;;;;;;;;9.00;66.63;97930.38;5074199;28;20573;-63
2022/05/16 00:44:38;;;;;;;;;;;;;;;9.00;65.97;97931.22;5073946;28;19978;-65
2022/05/16 00:47:04;;;;;;;;;;;;;;;8.99;65.73;97929.59;5089187;28;19924;-64
2022/05/16 00:49:30;;;;;;;;;;;;;;;8.98;65.41;97933.31;5074135;28;20386;-64
2022/05/16 00:52:00;;;;;;;;;;;;;;;8.94;65.92;97931.44;5089368;28;19924;-64
2022/05/16 00:54:55;;;;;;;;;;;;;;;8.88;65.93;97922.72;5073724;28;19932;-64
2022/05/16 00:57:22;;;;;;;;;;;;;;;8.83;65.77;97925.38;5059212;28;20464;-64
2022/05/16 00:59:54;;;;;;;;;;;;;;;8.79;65.31;97938.28;5072499;28;20023;-64
2022/05/16 01:05:06;;;;;;;;;;;;;;;8.78;66.06;97941.97;5073479;28;19966;-64
2022/05/16 01:07:33;;;;;;;;;;;;;;;8.78;65.17;97936.69;5073484;28;20301;-65
2022/05/16 01:09:59;;;;;;;;;;;;;;;8.73;65.13;97941.19;5073493;28;20551;-65
2022/05/16 01:12:31;;;;;;;;;;;;;;;8.70;65.22;97947.78;5072308;28;19925;-65
2022/05/16 01:14:56;;;;;;;;;;;;;;;8.67;65.11;97950.94;5073448;28;19939;-64
2022/05/16 01:17:22;;;;;;;;;;;;;;;8.67;64.92;97943.00;5073380;28;19924;-64
2022/05/16 01:19:50;;;;;;;;;;;;;;;8.66;65.30;97952.00;5073022;28;19928;-65
2022/05/16 01:22:15;;;;;;;;;;;;;;;8.59;65.11;97946.19;5071868;28;19931;-65
2022/05/16 01:24:41;;;;;;;;;;;;;;;8.51;65.41;97947.47;5073359;28;20390;-64
2022/05/16 01:27:06;;;;;;;;;;;;;;;8.50;65.87;97956.44;5071842;28;19990;-65
2022/05/16 01:29:32;;;;;;;;;;;;;;;8.47;66.01;97950.88;5073055;28;19929;-66
2022/05/16 01:31:57;;;;;;;;;;;;;;;8.43;65.75;97955.09;5071749;28;20305;-64
2022/05/16 01:34:23;;;;;;;;;;;;;;;8.35;65.84;97951.88;5073257;28;20078;-64
2022/05/16 01:36:48;;;;;;;;;;;;;;;8.33;65.99;97951.31;5071702;28;19959;-65
2022/05/16 01:39:14;;;;;;;;;;;;;;;8.35;66.25;97956.31;5073376;28;20007;-64
2022/05/16 01:41:39;;;;;;;;;;;;;;;8.29;66.28;97952.88;5072789;28;20015;-64
2022/05/16 01:44:05;;;;;;;;;;;;;;;8.35;66.11;97964.25;5071772;28;19952;-64
2022/05/16 01:46:32;;;;;;;;;;;;;;;8.31;66.43;97960.53;5073082;28;19928;-64
2022/05/16 01:48:58;;;;;;;;;;;;;;;8.33;66.27;97963.72;5072661;28;20007;-65
2022/05/16 01:51:23;;;;;;;;;;;;;;;8.30;66.12;97970.31;5071346;28;19966;-65
2022/05/16 01:53:49;;;;;;;;;;;;;;;8.33;66.37;97969.00;5071245;28;19924;-65
2022/05/16 01:56:15;;;;;;;;;;;;;;;8.35;66.64;97975.63;5072844;28;19932;-63
2022/05/16 01:58:41;;;;;;;;;;;;;;;8.38;66.30;97969.88;5072735;28;20384;-64
2022/05/16 02:01:07;;;;;;;;;;;;;;;8.39;66.43;97970.66;5071279;28;19954;-66
2022/05/16 02:03:32;;;;;;;;;;;;;;;8.43;66.05;97978.84;5105067;28;19990;-64
2022/05/16 02:05:58;;;;;;;;;;;;;;;8.43;66.27;97984.91;5054460;28;20409;-64
2022/05/16 02:08:23;;;;;;;;;;;;;;;8.41;65.61;97972.00;5072556;28;19938;-64
2022/05/16 02:10:49;;;;;;;;;;;;;;;8.43;66.05;97973.56;5071333;28;20027;-65
2022/05/16 02:13:15;;;;;;;;;;;;;;;8.43;66.02;97981.50;5072485;28;20339;-64
2022/05/16 02:15:41;;;;;;;;;;;;;;;8.44;65.84;97972.50;5072214;28;19935;-65
2022/05/16 02:18:08;;;;;;;;;;;;;;;8.43;65.87;97979.63;5104329;28;19925;-64
2022/05/16 02:20:34;;;;;;;;;;;;;;;8.50;66.11;97979.41;5070891;28;19935;-65
2022/05/16 02:25:44;;;;;;;;;;;;;;;8.51;65.55;97986.28;5070809;28;19929;-65
2022/05/16 02:28:10;;;;;;;;;;;;;;;8.50;65.43;97979.41;5072316;28;19929;-65
2022/05/16 02:30:36;;;;;;;;;;;;;;;8.43;65.15;97984.13;5071566;28;19994;-64
2022/05/16 02:33:02;;;;;;;;;;;;;;;8.40;65.58;97988.06;5087485;28;20339;-63
2022/05/16 02:35:29;;;;;;;;;;;;;;;8.50;65.36;97990.78;5070731;28;19929;-65
2022/05/16 02:37:58;;;;;;;;;;;;;;;8.60;65.21;97995.28;5072169;28;19928;-65
2022/05/16 02:40:27;;;;;;;;;;;;;;;8.75;64.24;97989.28;5072182;28;19932;-65
2022/05/16 02:42:52;;;;;;;;;;;;;;;9.51;62.64;97989.41;5070469;28;19970;-65
2022/05/16 02:45:18;;;;;;;;;;;;;;;10.22;59.83;97993.81;5072129;28;19933;-65
2022/05/16 02:47:44;;;;;;;;;;;;;;;10.61;58.00;98003.78;5104379;28;20032;-67
2022/05/16 02:50:10;;;;;;;;;;;;;;;10.84;57.03;97998.94;5070591;28;19936;-65
2022/05/16 02:52:35;;;;;;;;;;;;;;;11.33;55.83;97998.13;5070449;28;19921;-65
2022/05/16 02:55:01;;;;;;;;;;;;;;;11.82;53.92;98007.81;5071863;28;20049;-65
2022/05/16 02:57:27;;;;;;;;;;;;;;;12.28;52.30;98002.09;5071599;28;19920;-63
2022/05/16 02:59:53;;;;;;;;;;;;;;;12.29;51.85;98006.34;5071975;28;19928;-65
2022/05/16 03:02:19;;;;;;;;;;;;;;;12.22;52.07;98003.22;5053659;28;19929;-65
2022/05/16 03:04:44;;;;;;;;;;;;;;;12.40;51.32;98007.03;5071597;28;20419;-64
2022/05/16 03:07:10;;;;;;;;;;;;;;;12.41;50.86;98011.25;5071598;28;19924;-64
2022/05/16 03:09:35;;;;;;;;;;;;;;;12.37;51.10;98005.72;5071596;28;19935;-65
2022/05/16 03:12:01;;;;;;;;;;;;;;;12.26;51.38;98012.22;5071672;28;20061;-65
2022/05/16 03:14:27;;;;;;;;;;;;;;;12.60;50.16;98009.47;5071456;28;20420;-65
2022/05/16 03:16:52;;;;;;;;;;;;;;;12.93;48.99;98007.72;5071497;28;19925;-64
2022/05/16 03:19:18;;;;;;;;;;;;;;;13.07;48.57;98004.34;5070209;28;19924;-64
2022/05/16 03:21:44;;;;;;;;;;;;;;;13.24;48.21;98011.84;5070038;28;19929;-66
2022/05/16 03:24:09;;;;;;;;;;;;;;;13.33;47.59;98015.47;5037019;28;19924;-65
2022/05/16 03:26:35;;;;;;;;;;;;;;;13.45;47.34;98015.81;5071100;28;19935;-65
2022/05/16 03:29:01;;;;;;;;;;;;;;;13.34;47.51;98009.06;5071780;28;19920;-64
2022/05/16 03:31:27;;;;;;;;;;;;;;;13.52;46.91;98015.44;5071390;28;19978;-64
2022/05/16 03:33:52;;;;;;;;;;;;;;;13.66;46.43;98023.47;5071649;28;19928;-64
2022/05/16 03:36:18;;;;;;;;;;;;;;;13.42;46.67;98007.63;5071426;28;20034;-64
2022/05/16 03:41:27;;;;;;;;;;;;;;;13.68;46.07;98008.00;5072400;28;20031;-63
2022/05/16 03:43:53;;;;;;;;;;;;;;;13.77;46.16;98015.03;5073708;28;20066;-65
2022/05/16 03:46:18;;;;;;;;;;;;;;;14.16;45.79;98016.50;5075243;28;20408;-64
2022/05/16 03:48:44;;;;;;;;;;;;;;;14.13;44.92;98017.09;5073500;28;19931;-63
2022/05/16 03:51:10;;;;;;;;;;;;;;;14.03;45.58;98017.25;5074930;28;20031;-65
2022/05/16 03:53:36;;;;;;;;;;;;;;;14.11;45.37;98013.13;5073497;28;20393;-63
2022/05/16 03:56:03;;;;;;;;;;;;;;;14.10;44.99;98020.34;5074786;28;19929;-65
2022/05/16 03:58:28;;;;;;;;;;;;;;;14.23;44.36;98016.91;5073321;28;19932;-64
2022/05/16 04:00:54;;;;;;;;;;;;;;;14.14;44.11;98017.88;5074487;28;19929;-64
2022/05/16 04:03:19;;;;;;;;;;;;;;;14.10;44.96;98017.69;5073435;28;19970;-64
2022/05/16 04:05:45;;;;;;;;;;;;;;;14.00;45.44;98023.16;5074801;28;19928;-64
2022/05/16 04:08:10;;;;;;;;;;;;;;;14.23;44.53;98005.44;5073233;28;20312;-64
2022/05/16 04:10:36;;;;;;;;;;;;;;;14.49;44.28;98016.44;5074520;28;19986;-64
2022/05/16 04:13:02;;;;;;;;;;;;;;;14.47;43.53;98016.75;5107108;28;20408;-64
2022/05/16 04:15:28;;;;;;;;;;;;;;;14.52;43.78;98010.53;5074655;28;19974;-65
2022/05/16 04:17:53;;;;;;;;;;;;;;;14.66;43.41;98008.66;5074477;28;19924;-64
2022/05/16 04:20:19;;;;;;;;;;;;;;;14.67;43.14;98007.56;5073973;28;19974;-64
2022/05/16 04:22:45;;;;;;;;;;;;;;;14.68;42.99;98011.81;5072681;28;19924;-64
2022/05/16 04:25:11;;;;;;;;;;;;;;;14.82;42.79;98017.13;5074033;28;19935;-65
2022/05/16 04:27:38;;;;;;;;;;;;;;;14.69;43.24;98015.28;5074304;28;20373;-65
2022/05/16 04:30:03;;;;;;;;;;;;;;;14.93;42.19;98007.03;5074508;28;20015;-64
2022/05/16 04:32:29;;;;;;;;;;;;;;;15.06;42.14;98011.59;5074269;28;20603;-63
2022/05/16 04:34:54;;;;;;;;;;;;;;;15.22;41.86;98015.47;5074020;28;19928;-63
2022/05/16 04:37:20;;;;;;;;;;;;;;;15.22;41.70;98012.03;5074196;28;20013;-63
2022/05/16 04:39:46;;;;;;;;;;;;;;;15.21;41.52;98007.78;5074089;28;19928;-63
2022/05/16 04:44:56;;;;;;;;;;;;;;;14.93;41.88;97999.03;5074183;28;19928;-63
2022/05/16 04:47:21;;;;;;;;;;;;;;;14.99;41.76;98008.50;5106414;28;19924;-64
2022/05/16 04:49:47;;;;;;;;;;;;;;;15.11;41.67;98016.00;5106585;28;19986;-64
2022/05/16 04:52:13;;;;;;;;;;;;;;;14.83;41.89;98009.94;5073351;28;19960;-64
2022/05/16 04:54:40;;;;;;;;;;;;;;;14.57;42.53;98018.44;5073646;28;19964;-66
2022/05/16 04:57:06;;;;;;;;;;;;;;;14.35;42.62;98018.28;5072392;28;19931;-64
2022/05/16 04:59:31;;;;;;;;;;;;;;;14.03;43.57;98012.75;5073680;28;19928;-63
2022/05/16 05:01:58;;;;;;;;;;;;;;;13.82;43.31;98016.81;5073634;28;20022;-66
2022/05/16 05:04:24;;;;;;;;;;;;;;;14.06;44.12;98016.69;5073506;28;19932;-67
2022/05/16 05:06:50;;;;;;;;;;;;;;;14.00;43.75;98016.00;5073322;28;20309;-64
2022/05/16 05:09:15;;;;;;;;;;;;;;;14.05;43.50;98015.09;5072285;28;20381;-66
2022/05/16 05:14:34;;;;;;;;;;;;;;;13.78;43.69;97999.84;5071988;28;19932;-63
2022/05/16 05:17:04;;;;;;;;;;;;;;;13.76;44.86;98010.78;5072268;28;20356;-62
2022/05/16 05:19:29;;;;;;;;;;;;;;;13.98;43.85;98007.50;5073212;28;19928;-65
2022/05/16 05:21:55;;;;;;;;;;;;;;;14.05;43.51;98002.56;5072204;28;19969;-66
2022/05/16 05:24:20;;;;;;;;;;;;;;;14.07;43.09;98002.28;5073348;28;20381;-63
2022/05/16 05:26:49;;;;;;;;;;;;;;;14.18;43.27;98002.91;5072994;28;19939;-62
2022/05/16 05:29:16;;;;;;;;;;;;;;;14.20;42.79;98006.81;5073296;28;19978;-62
2022/05/16 05:31:42;;;;;;;;;;;;;;;14.25;42.32;98006.75;5072936;28;19928;-63
2022/05/16 05:34:11;;;;;;;;;;;;;;;14.27;42.81;98006.47;5072865;28;20274;-62
2022/05/16 05:36:38;;;;;;;;;;;;;;;14.26;42.51;98000.31;5073018;28;19932;-63
2022/05/16 05:39:04;;;;;;;;;;;;;;;14.18;42.50;97994.91;5073251;28;20384;-62
2022/05/16 05:41:30;;;;;;;;;;;;;;;14.03;42.88;98002.09;5072868;28;19963;-63
2022/05/16 05:43:55;;;;;;;;;;;;;;;13.99;42.87;98003.72;5071151;28;19928;-62
2022/05/16 05:46:21;;;;;;;;;;;;;;;13.96;42.46;97999.00;5071290;28;20018;-62
2022/05/16 05:48:46;;;;;;;;;;;;;;;13.85;43.04;98008.25;5072771;28;19974;-62
2022/05/16 05:51:12;;;;;;;;;;;;;;;13.74;43.33;98006.84;5072560;28;19936;-63
2022/05/16 05:53:38;;;;;;;;;;;;;;;14.00;43.10;98005.34;5072729;28;20019;-63
2022/05/16 05:56:06;;;;;;;;;;;;;;;13.86;42.65;98015.94;5104944;28;19924;-63
2022/05/16 05:58:34;;;;;;;;;;;;;;;13.91;43.33;98000.94;5072478;28;19932;-63
2022/05/16 06:01:01;;;;;;;;;;;;;;;13.77;42.92;97999.06;5072392;28;20294;-63
2022/05/16 06:03:26;;;;;;;;;;;;;;;13.79;43.84;97994.22;5070657;28;20062;-62
2022/05/16 06:05:52;;;;;;;;;;;;;;;13.72;44.45;98001.00;5071796;28;19973;-64
2022/05/16 06:08:17;;;;;;;;;;;;;;;13.94;44.81;97998.53;5072147;28;20018;-62
2022/05/16 06:10:43;;;;;;;;;;;;;;;14.13;43.45;97998.44;5072231;28;19928;-62
2022/05/16 06:13:08;;;;;;;;;;;;;;;14.24;43.20;97993.72;5070712;28;19931;-62
2022/05/16 06:15:34;;;;;;;;;;;;;;;14.18;41.80;98006.34;5072337;28;19928;-64
2022/05/16 06:18:00;;;;;;;;;;;;;;;13.99;42.36;98010.94;5071994;28;19969;-61
2022/05/16 06:20:25;;;;;;;;;;;;;;;14.07;42.99;98010.28;5071831;28;20009;-62
2022/05/16 06:22:51;;;;;;;;;;;;;;;14.23;42.81;98000.13;5071790;28;20416;-62
2022/05/16 06:25:33;;;;;;;;;;;;;;;14.29;42.57;97994.41;5070651;28;19932;-62
2022/05/16 06:28:02;;;;;;;;;;;;;;;14.20;42.55;98004.16;5072087;28;19970;-61
2022/05/16 06:30:28;;;;;;;;;;;;;;;13.80;42.04;98003.03;5070416;28;20382;-63
2022/05/16 06:32:54;;;;;;;;;;;;;;;13.69;42.25;97998.94;5071766;28;19943;-62
2022/05/16 06:35:20;;;;;;;;;;;;;;;13.72;41.35;97991.16;5050593;28;20068;-62
2022/05/16 06:37:45;;;;;;;;;;;;;;;13.71;41.48;98002.09;5070711;28;19974;-62
2022/05/16 06:40:11;;;;;;;;;;;;;;;13.59;41.59;97994.56;5068674;28;19935;-62
2022/05/16 06:42:37;;;;;;;;;;;;;;;13.73;41.49;98011.34;5069727;28;19958;-64
2022/05/16 06:45:03;;;;;;;;;;;;;;;13.83;40.70;97995.22;5069512;28;19932;-63
2022/05/16 06:47:29;;;;;;;;;;;;;;;14.18;41.33;98005.56;5071117;28;19956;-62
2022/05/16 06:49:55;;;;;;;;;;;;;;;14.09;43.19;97998.25;5068743;28;19967;-63
2022/05/16 06:52:21;;;;;;;;;;;;;;;14.26;42.20;97996.88;5070158;28;20388;-60
2022/05/16 06:54:47;;;;;;;;;;;;;;;14.43;41.79;97996.28;5086782;28;19932;-61
2022/05/16 06:57:12;;;;;;;;;;;;;;;14.13;41.76;98010.97;5078851;28;19970;-65
2022/05/16 06:59:38;;;;;;;;;;;;;;;14.08;40.39;98006.53;5071078;28;19935;-63
2022/05/16 07:02:05;;;;;;;;;;;;;;;13.80;40.00;98011.78;5070964;28;19978;-65
2022/05/16 07:04:31;;;;;;;;;;;;;;;13.58;40.39;98007.06;5068850;28;19929;-66
2022/05/16 07:06:57;;;;;;;;;;;;;;;13.43;40.06;98009.97;5048151;28;20397;-62
2022/05/16 07:09:22;;;;;;;;;;;;;;;13.42;40.79;98013.72;5070183;28;19960;-62
2022/05/16 07:11:48;;;;;;;;;;;;;;;13.28;40.79;98016.31;5070177;28;19964;-63
2022/05/16 07:14:15;;;;;;;;;;;;;;;13.24;41.05;98028.59;5068929;28;19920;-63
2022/05/16 07:16:41;;;;;;;;;;;;;;;13.16;41.23;98019.38;5071298;28;19952;-62
2022/05/16 07:19:06;;;;;;;;;;;;;;;13.44;41.06;98016.09;5038862;28;20292;-65
2022/05/16 07:21:32;;;;;;;;;;;;;;;13.56;40.63;98009.25;5067457;28;20424;-64
2022/05/16 07:23:58;;;;;;;;;;;;;;;13.67;41.10;98009.88;5072819;28;19924;-69
2022/05/16 07:29:08;;;;;;;;;;;;;;;14.12;39.87;98007.53;5073647;28;19978;-62
2022/05/16 07:31:34;;;;;;;;;;;;;;;14.27;39.64;98003.78;5073931;28;19929;-62
2022/05/16 07:34:00;;;;;;;;;;;;;;;13.97;39.45;98015.75;5073538;28;19920;-64
2022/05/16 07:36:26;;;;;;;;;;;;;;;13.83;40.15;98016.53;5071270;28;19971;-65
2022/05/16 07:38:52;;;;;;;;;;;;;;;13.46;39.04;98028.03;5070807;28;19924;-65
2022/05/16 07:41:17;;;;;;;;;;;;;;;13.02;38.81;98015.06;5071115;28;20420;-66
2022/05/16 07:43:43;;;;;;;;;;;;;;;12.80;39.25;98011.09;5071080;28;19931;-64
2022/05/16 07:46:09;;;;;;;;;;;;;;;12.93;39.07;98015.69;5072303;28;19935;-64
2022/05/16 07:48:34;;;;;;;;;;;;;;;13.19;40.48;98008.16;5072993;28;19920;-62
2022/05/16 07:51:00;;;;;;;;;;;;;;;13.49;40.66;98024.00;5073963;28;19935;-64
2022/05/16 07:53:26;;;;;;;;;;;;;;;13.64;41.19;98013.91;5071024;28;19965;-64
2022/05/16 07:55:54;;;;;;;;;;;;;;;14.01;41.05;98014.91;5070362;28;20020;-63
2022/05/16 07:58:21;;;;;;;;;;;;;;;14.41;41.29;98014.44;5072581;28;20066;-62
2022/05/16 08:00:49;;;;;;;;;;;;;;;14.83;40.09;98005.38;5053893;28;20035;-62
2022/05/16 08:03:15;;;;;;;;;;;;;;;15.12;40.21;98012.25;5053894;28;19973;-63
2022/05/16 08:05:41;;;;;;;;;;;;;;;15.28;39.59;98004.69;5070842;28;19928;-64
2022/05/16 08:10:52;;;;;;;;;;;;;;;14.61;40.00;97999.97;5071551;28;19929;-67
2022/05/16 08:13:17;;;;;;;;;;;;;;;14.44;40.10;97998.66;5071619;28;19936;-64
2022/05/16 08:15:43;;;;;;;;;;;;;;;14.32;39.74;97990.34;5072181;28;19975;-64
2022/05/16 08:18:10;;;;;;;;;;;;;;;14.23;39.64;97995.56;5071300;28;19924;-60
2022/05/16 08:20:37;;;;;;;;;;;;;;;13.92;40.12;97998.00;5070309;28;19935;-61
2022/05/16 08:23:03;;;;;;;;;;;;;;;13.63;40.64;98008.88;5070418;28;19932;-62
2022/05/16 08:25:28;;;;;;;;;;;;;;;13.63;41.23;98016.88;5054977;28;19928;-60
2022/05/16 08:27:54;;;;;;;;;;;;;;;13.72;40.85;98015.13;5072502;28;20535;-60
2022/05/16 08:30:20;;;;;;;;;;;;;;;13.78;40.80;98008.63;5073185;28;20313;-61
2022/05/16 08:32:46;;;;;;;;;;;;;;;13.92;40.04;98008.66;5073251;28;19924;-60
2022/05/16 08:35:12;;;;;;;;;;;;;;;13.93;38.41;98010.25;5073348;28;20316;-61
2022/05/16 08:40:32;;;;;;;;;;;;;;;14.23;39.01;98016.13;5052658;28;19935;-61
2022/05/16 08:43:06;;;;;;;;;;;;;;;14.07;37.91;98000.41;5070677;28;20385;-63
2022/05/16 08:45:34;;;;;;;;;;;;;;;13.86;38.11;98018.63;5072868;28;19936;-61
2022/05/16 08:48:06;;;;;;;;;;;;;;;13.83;38.78;97999.78;5072581;28;19924;-62
2022/05/16 08:50:38;;;;;;;;;;;;;;;13.79;39.42;98007.53;5070512;28;19935;-61
2022/05/16 08:53:21;;;;;;;;;;;;;;;13.96;39.70;98014.97;5071315;28;19925;-61
2022/05/16 08:55:50;;;;;;;;;;;;;;;13.92;39.99;98023.88;5071541;28;19966;-62
2022/05/16 08:58:16;;;;;;;;;;;;;;;13.80;40.55;98016.34;5071204;28;19946;-62
2022/05/16 09:00:47;;;;;;;;;;;;;;;13.58;40.01;98031.03;5071849;28;19928;-62
2022/05/16 09:03:15;;;;;;;;;;;;;;;13.74;40.06;98004.19;5054073;28;19928;-62
2022/05/16 09:05:44;;;;;;;;;;;;;;;13.78;39.88;98003.28;5070008;28;19929;-62
2022/05/16 09:08:14;;;;;;;;;;;;;;;14.08;39.59;98009.19;5072389;28;20442;-61
2022/05/16 09:10:54;;;;;;;;;;;;;;;14.41;39.04;98001.94;5054075;28;20062;-61
2022/05/16 09:13:35;;;;;;;;;;;;;;;14.80;38.98;98005.19;5049431;28;20031;-62
2022/05/16 09:16:18;;;;;;;;;;;;;;;15.08;38.37;98011.25;5051805;28;19929;-61
2022/05/16 09:18:44;;;;;;;;;;;;;;;15.33;37.84;98013.38;5049843;28;19928;-62
2022/05/16 09:21:46;;;;;;;;;;;;;;;15.22;37.39;98012.03;5051022;28;19929;-61
2022/05/16 09:24:17;;;;;;;;;;;;;;;14.80;38.43;98031.88;5050579;28;20374;-61
2022/05/16 09:26:47;;;;;;;;;;;;;;;14.63;39.00;98029.81;5051177;28;19935;-61
2022/05/16 09:29:16;;;;;;;;;;;;;;;14.16;36.36;98031.72;5058279;28;20027;-61
2022/05/16 09:31:44;;;;;;;;;;;;;;;13.91;35.42;98033.72;5056636;28;19939;-62
2022/05/16 09:34:34;;;;;;;;;;;;;;;14.21;35.98;98011.09;5050762;28;19963;-62
2022/05/16 09:37:12;;;;;;;;;;;;;;;14.48;36.83;98012.97;5051641;28;20323;-60
2022/05/16 09:39:39;;;;;;;;;;;;;;;14.56;36.87;98011.53;5069932;28;19935;-62
2022/05/16 09:42:14;;;;;;;;;;;;;;;14.51;38.38;98006.28;5072122;28;19928;-63
2022/05/16 09:44:46;;;;;;;;;;;;;;;14.84;37.99;98014.97;5070742;28;20035;-63
2022/05/16 09:47:19;;;;;;;;;;;;;;;14.72;39.79;98023.47;5105506;22;20350;-63
2022/05/16 09:49:46;;;;;;;;;;;;;;;14.62;40.12;98021.03;5059947;28;19929;-61
2022/05/16 09:52:15;;;;;;;;;;;;;;;14.49;40.26;98011.88;5069280;28;19947;-62
2022/05/16 09:54:41;;;;;;;;;;;;;;;14.66;39.51;98018.53;5056942;28;19925;-62
2022/05/16 09:57:17;;;;;;;;;;;;;;;14.87;39.36;98024.25;5051484;28;20407;-59
2022/05/16 09:59:48;;;;;;;;;;;;;;;14.91;38.14;98026.03;5051182;28;20381;-62
2022/05/16 10:02:16;;;;;;;;;;;;;;;14.81;38.17;98023.56;5033537;28;19925;-62
2022/05/16 10:04:43;;;;;;;;;;;;;;;14.99;38.57;98024.53;5051102;28;19967;-63
2022/05/16 10:07:09;;;;;;;;;;;;;;;15.04;38.37;98032.44;5065593;28;20006;-61
2022/05/16 10:09:42;;;;;;;;;;;;;;;15.25;37.99;98027.44;5069649;28;20359;-64
2022/05/16 10:12:09;;;;;;;;;;;;;;;15.45;37.65;98029.66;5067379;28;19929;-61
2022/05/16 10:14:37;;;;;;;;;;;;;;;15.64;37.39;98023.34;5051384;28;19935;-63
2022/05/16 10:17:03;;;;;;;;;;;;;;;15.66;38.24;98013.94;5068760;28;19964;-63
2022/05/16 10:19:29;;;;;;;;;;;;;;;15.60;38.43;98020.50;5069236;28;20039;-64
2022/05/16 10:21:55;;;;;;;;;;;;;;;15.63;38.56;98005.75;5052127;28;19925;-62
2022/05/16 10:24:21;;;;;;;;;;;;;;;15.58;38.10;98020.00;5069922;28;19935;-63
2022/05/16 10:26:48;;;;;;;;;;;;;;;15.17;38.89;98012.91;5069951;28;20389;-63
2022/05/16 10:29:16;;;;;;;;;;;;;;;14.75;39.62;98022.88;5069533;28;19950;-64
2022/05/16 10:34:34;;;;;;;;;;;;;;;13.63;44.61;98051.47;5069181;28;20397;-62
2022/05/16 10:37:00;;;;;;;;;;;;;;;13.04;44.95;98040.28;5069252;28;19951;-62
2022/05/16 10:39:27;;;;;;;;;;;;;;;12.74;46.70;98049.44;5068910;28;20386;-62
2022/05/16 10:41:56;;;;;;;;;;;;;;;12.72;46.29;98040.97;5066011;28;20019;-63
2022/05/16 10:44:29;;;;;;;;;;;;;;;12.80;42.53;98044.88;5048270;28;19929;-61
2022/05/16 10:46:59;;;;;;;;;;;;;;;12.98;40.90;98024.69;5031820;28;19967;-63
2022/05/16 10:49:25;;;;;;;;;;;;;;;13.33;39.53;98028.78;5032187;28;19929;-62
2022/05/16 10:51:58;;;;;;;;;;;;;;;13.51;38.57;98021.84;5049256;28;19978;-62
2022/05/16 10:54:25;;;;;;;;;;;;;;;13.44;39.00;98021.41;5015495;28;19941;-62
2022/05/16 10:57:04;;;;;;;;;;;;;;;13.67;39.17;98017.06;5032611;28;20015;-62
2022/05/16 10:59:37;;;;;;;;;;;;;;;13.90;38.56;98010.81;5049797;28;19942;-64
2022/05/16 11:02:22;;;;;;;;;;;;;;;14.08;37.53;98009.19;5049336;28;20381;-63
2022/05/16 11:04:57;;;;;;;;;;;;;;;14.16;37.50;98002.41;5049223;28;19976;-63
2022/05/16 11:07:44;;;;;;;;;;;;;;;14.26;37.10;98002.97;5049226;28;19932;-61
2022/05/16 11:10:23;;;;;;;;;;;;;;;14.02;37.95;98010.34;5047474;28;20413;-62
2022/05/16 11:12:51;;;;;;;;;;;;;;;14.04;37.23;98011.66;5047609;28;19936;-62
2022/05/16 11:15:44;;;;;;;;;;;;;;;14.04;37.56;98006.31;5047846;28;20030;-62
2022/05/16 11:18:29;;;;;;;;;;;;;;;13.98;38.14;97993.38;5049396;28;19940;-61
2022/05/16 11:20:56;;;;;;;;;;;;;;;13.99;38.73;98005.63;5049823;28;19929;-60
2022/05/16 11:23:47;;;;;;;;;;;;;;;14.04;38.87;98011.66;5047358;28;19931;-61
2022/05/16 11:26:13;;;;;;;;;;;;;;;13.91;38.51;97995.63;5048652;28;19928;-62
2022/05/16 11:29:17;;;;;;;;;;;;;;;13.90;37.44;98005.50;5032069;28;19998;-62
2022/05/16 11:31:31;;;;;;;;;;;;;;;14.10;35.97;98001.69;5049200;28;19974;-62
2022/05/16 11:33:57;;;;;;;;;;;;;;;14.24;36.30;97991.84;5015000;28;19929;-62
2022/05/16 11:36:49;;;;;;;;;;;;;;;14.45;34.96;97992.25;5049910;28;20019;-60
2022/05/16 11:39:17;;;;;;;;;;;;;;;14.52;33.08;97999.88;5067545;28;19936;-60
2022/05/16 11:41:46;;;;;;;;;;;;;;;14.37;33.93;97990.25;5068190;28;20031;-60
2022/05/16 11:44:31;;;;;;;;;;;;;;;14.32;33.13;97979.69;5068738;28;19928;-64
2022/05/16 11:46:57;;;;;;;;;;;;;;;14.29;33.42;97991.75;5050975;28;19924;-64
2022/05/16 11:49:26;;;;;;;;;;;;;;;14.33;33.85;97997.28;5067091;28;19928;-64
2022/05/16 11:52:01;;;;;;;;;;;;;;;14.37;34.58;97987.59;5032314;28;19975;-64
2022/05/16 11:54:28;;;;;;;;;;;;;;;14.46;34.55;97988.47;5049121;28;19929;-63
2022/05/16 12:02:42;;;;;;;;;;;;;;;14.17;35.65;97983.44;5049594;28;19948;-63
2022/05/16 12:05:34;;;;;;;;;;;;;;;14.17;36.00;97977.31;5053566;28;20467;-62
2022/05/16 12:08:24;;;;;;;;;;;;;;;14.18;36.29;97981.59;5053612;28;20371;-63
2022/05/16 12:10:55;;;;;;;;;;;;;;;14.37;36.99;97974.28;5035594;28;19933;-63
2022/05/16 12:13:29;;;;;;;;;;;;;;;14.46;36.73;97971.69;5053805;28;20019;-63
2022/05/16 12:16:13;;;;;;;;;;;;;;;14.60;35.72;97964.50;5051664;28;19936;-63
2022/05/16 12:18:41;;;;;;;;;;;;;;;14.75;36.25;97974.88;5054021;28;19929;-64
2022/05/16 12:21:29;;;;;;;;;;;;;;;14.69;35.06;97969.94;5052603;28;20061;-63
2022/05/16 12:23:55;;;;;;;;;;;;;;;14.87;35.77;97970.91;5049473;28;19928;-64
2022/05/16 12:26:27;;;;;;;;;;;;;;;14.81;34.93;97967.53;5023580;28;19969;-63
2022/05/16 12:29:09;;;;;;;;;;;;;;;14.86;34.90;97977.31;5054553;28;19989;-63
2022/05/16 12:31:55;;;;;;;;;;;;;;;14.75;36.06;98003.41;5054320;28;19955;-62
2022/05/16 12:34:35;;;;;;;;;;;;;;;14.22;38.33;98007.34;5070975;28;20005;-63
2022/05/16 12:37:02;;;;;;;;;;;;;;;13.73;40.13;97990.06;5071577;28;19924;-65
2022/05/16 12:39:55;;;;;;;;;;;;;;;13.73;39.72;97991.94;5055435;28;19932;-62
2022/05/16 12:42:22;;;;;;;;;;;;;;;13.51;40.12;97979.25;5055160;28;19925;-63
2022/05/16 12:44:57;;;;;;;;;;;;;;;13.55;40.85;97985.56;5072392;28;19935;-64
2022/05/16 12:47:23;;;;;;;;;;;;;;;13.71;40.43;97986.91;5054748;28;20445;-61
2022/05/16 12:50:26;;;;;;;;;;;;;;;13.92;40.48;97978.59;5054376;28;19994;-62
2022/05/16 12:53:11;;;;;;;;;;;;;;;14.08;40.35;97975.31;5013377;28;19925;-59
2022/05/16 12:55:37;;;;;;;;;;;;;;;14.25;39.33;97964.09;5068733;28;19976;-62
2022/05/16 12:58:21;;;;;;;;;;;;;;;14.57;38.51;97959.78;5073208;28;19975;-63
2022/05/16 13:00:52;;;;;;;;;;;;;;;14.94;37.40;97960.59;5071571;28;19929;-61
2022/05/16 13:03:22;;;;;;;;;;;;;;;14.94;37.18;97942.72;5037163;28;19924;-59
2022/05/16 13:06:03;;;;;;;;;;;;;;;14.86;34.98;97950.66;5022933;28;20382;-61
2022/05/16 13:08:29;;;;;;;;;;;;;;;14.82;34.35;97941.66;5070966;28;19928;-61
2022/05/16 13:11:10;;;;;;;;;;;;;;;14.97;34.19;97946.66;5070199;28;20003;-62
2022/05/16 13:13:38;;;;;;;;;;;;;;;15.01;34.10;97958.31;5020379;28;19934;-62
2022/05/16 13:16:16;;;;;;;;;;;;;;;15.13;34.57;97953.22;5022452;28;19928;-60
2022/05/16 13:18:45;;;;;;;;;;;;;;;15.08;32.70;97960.56;5049205;28;20325;-61
2022/05/16 13:21:12;;;;;;;;;;;;;;;15.05;32.68;97955.81;5034046;28;19982;-60
2022/05/16 13:23:39;;;;;;;;;;;;;;;15.08;33.74;97950.66;5052020;28;19932;-60
2022/05/16 13:31:54;;;;;;;;;;;;;;;15.10;32.08;97940.50;4998493;28;20284;-62